Latest Weather Observations for Bellambi

IDN60901

Issued at 8:21 pm EST Friday 20 July 2018 (issued every 10 minutes, with the page automatically refreshed every 10 minutes)

About weather observations | Map of Sydney area stations | Latest observations for Sydney area | Other Formats
Station Details ID: 068228 Name: BELLAMBI AWS Lat: -34.37 Lon: 150.93 Height: 10.0 m
Data from the previous 72 hours. | See also: Recent months at Bellambi
Date/Time
EST
Temp
°C
App
Temp
°C
Dew
Point
°C
Rel
Hum
%
Delta-T
°C
Wind Press
QNH
hPa
Press
MSL
hPa
Rain since
9am
mm
Dir  Spd
km/h
Gust
km/h
Spd
kts
Gust
kts
20/08:00pm 11.3 3.8 -1.5 41 5.0 W 28 48 15 26 - - 0.0
20/07:30pm 11.5 2.6 -1.6 40 5.1 W 35 57 19 31 - - 0.0
20/07:00pm 11.6 2.8 -1.5 40 5.2 W 35 65 19 35 - - 0.0
20/06:33pm 11.6 4.1 -1.5 40 5.2 W 28 48 15 26 - - 0.0
20/06:30pm 11.6 4.5 -1.5 40 5.2 W 26 44 14 24 - - 0.0
20/06:15pm 11.8 5.1 -1.3 40 5.2 W 24 59 13 32 - - 0.0
20/06:00pm 11.7 5.3 -1.8 39 5.3 W 22 37 12 20 - - 0.0
20/05:30pm 12.2 1.7 -2.4 36 5.7 WNW 43 69 23 37 - - 0.0
20/05:00pm 12.7 3.4 -2.3 35 5.9 WNW 37 72 20 39 - - 0.0
20/04:30pm 13.3 3.9 -3.0 32 6.3 W 37 63 20 34 - - 0.0
20/04:00pm 13.8 4.8 -2.6 32 6.5 W 35 67 19 36 - - 0.0
20/03:30pm 14.1 4.8 -1.9 33 6.4 W 37 57 20 31 - - 0.0
20/03:00pm 14.5 6.2 -1.6 33 6.5 W 32 57 17 31 - - 0.0
20/02:30pm 14.7 5.1 -1.8 32 6.7 W 39 69 21 37 - - 0.0
20/02:00pm 14.9 6.5 -2.1 31 6.8 W 32 56 17 30 - - 0.0
20/01:32pm 14.6 7.1 -1.5 33 6.6 W 28 50 15 27 - - 0.0
20/01:30pm 14.7 7.6 -1.0 34 6.5 W 26 43 14 23 - - 0.0
20/01:03pm 14.4 5.3 -0.5 36 6.2 W 37 56 20 30 - - 0.0
20/01:00pm 14.2 4.7 -0.6 36 6.1 WSW 39 56 21 30 - - 0.0
20/12:33pm 14.8 5.5 0.3 37 6.1 W 39 59 21 32 - - 0.0
20/12:30pm 15.0 5.7 0.8 38 6.1 W 39 54 21 29 - - 0.0
20/12:00pm 16.2 6.6 1.1 36 6.6 W 41 61 22 33 - - 0.0
20/11:53am 17.1 8.2 0.7 33 7.2 WNW 37 63 20 34 - - 0.0
20/11:31am 17.6 9.1 1.2 33 7.3 NW 35 56 19 30 - - 0.0
20/11:30am 17.6 9.2 1.6 34 7.2 NW 35 52 19 28 - - 0.0
20/11:21am 17.8 9.7 0.9 32 7.5 NW 33 52 18 28 - - 0.0
20/11:00am 18.8 10.7 1.3 31 7.9 NW 33 46 18 25 - - 0.0
20/10:39am 18.0 9.7 -0.3 29 7.9 NW 33 52 18 28 - - 0.0
20/10:30am 18.1 9.1 0.3 30 7.8 NW 37 50 20 27 - - 0.0
20/10:10am 17.7 9.0 -0.5 29 7.8 WNW 35 54 19 29 - - 0.0
20/10:00am 17.8 9.0 -0.9 28 7.9 WNW 35 50 19 27 - - 0.0
20/09:41am 18.6 10.1 -1.8 25 8.6 NW 33 52 18 28 - - 0.0
20/09:30am 17.8 8.3 -0.9 28 7.9 NW 39 52 21 28 - - 0.0
20/09:06am 18.0 8.4 -1.8 26 8.3 NW 39 57 21 31 - - 0.0
20/09:00am 18.6 10.5 -0.2 28 8.2 NW 32 44 17 24 - - 0.0
20/08:30am 14.6 7.9 -1.1 34 6.4 NW 24 32 13 17 - - 0.0
20/08:00am 14.7 7.0 -3.1 29 7.0 NW 28 43 15 23 - - 0.0
20/07:30am 16.2 9.1 -0.9 31 7.2 NW 26 33 14 18 - - 0.0
20/07:00am 15.2 9.1 -2.2 30 7.0 NW 20 41 11 22 - - 0.0
20/06:30am 15.0 8.1 -2.9 29 7.1 NW 24 32 13 17 - - 0.0
20/06:00am 15.3 8.2 -0.9 33 6.7 NW 26 37 14 20 - - 0.0
20/05:30am 14.7 8.8 -1.0 34 6.5 NW 20 28 11 15 - - 0.0
20/05:00am 14.7 7.5 -1.8 32 6.7 NW 26 32 14 17 - - 0.0
20/04:30am 15.1 7.9 -1.9 31 6.9 NW 26 32 14 17 - - 0.0
20/04:00am 14.9 9.0 -2.1 31 6.8 WNW 19 28 10 15 - - 0.0
20/03:30am 15.6 8.4 0.6 36 6.4 NNW 28 33 15 18 - - 0.0
20/03:00am 15.5 8.2 -0.3 34 6.7 NNW 28 37 15 20 - - 0.0
20/02:30am 16.4 9.2 0.5 34 6.9 NNW 28 33 15 18 - - 0.0
20/02:00am 18.0 9.6 -0.8 28 8.0 NW 33 43 18 23 - - 0.0
20/01:30am 17.5 9.8 0.2 31 7.5 NW 30 37 16 20 - - 0.0
20/01:00am 17.2 10.6 -0.5 30 7.5 NW 24 35 13 19 - - 0.0
20/12:30am 16.2 11.2 -0.9 31 7.2 NW 15 28 8 15 - - 0.0
20/12:00am 16.0 12.8 -0.2 33 6.9 NNW 6 15 3 8 - - 0.0
 
Date/Time
EST
Temp
°C
App
Temp
°C
Dew
Point
°C
Rel
Hum
%
Delta-T
°C
Wind Press
QNH
hPa
Press
MSL
hPa
Rain since
9am
mm
Dir  Spd
km/h
Gust
km/h
Spd
kts
Gust
kts
19/11:30pm 16.6 11.3 1.9 37 6.6 N 19 24 10 13 - - 0.0
19/11:00pm 15.9 11.9 2.7 41 6.0 N 13 19 7 10 - - 0.0
19/10:30pm 16.8 12.2 1.3 35 6.8 N 15 20 8 11 - - 0.0
19/10:00pm 16.3 13.0 0.0 33 7.0 NNE 7 13 4 7 - - 0.0
19/09:30pm 15.7 12.7 1.8 39 6.1 NE 7 9 4 5 - - 0.0
19/09:00pm 15.5 13.3 3.6 45 5.4 E 4 13 2 7 - - 0.0
19/08:30pm 14.9 11.6 0.4 37 6.2 W 7 9 4 5 - - 0.0
19/08:00pm 14.4 11.5 4.7 52 4.5 NE 9 13 5 7 - - 0.0
19/07:30pm 16.2 11.8 7.2 55 4.5 NE 20 24 11 13 - - 0.0
19/07:00pm 16.1 12.1 8.1 59 4.0 NE 19 22 10 12 - - 0.0
19/06:30pm 16.2 11.8 8.9 62 3.7 NE 22 28 12 15 - - 0.0
19/06:00pm 16.6 12.5 8.6 59 4.1 NNE 20 26 11 14 - - 0.0
19/05:30pm 16.7 12.9 9.1 61 3.9 NNE 19 24 10 13 - - 0.0
19/05:00pm 16.8 13.4 5.7 48 5.4 N 13 17 7 9 - - 0.0
19/04:30pm 17.7 13.7 6.6 48 5.5 NNE 17 26 9 14 - - 0.0
19/04:00pm 18.2 14.1 6.4 46 5.8 NNE 17 22 9 12 - - 0.0
19/03:30pm 17.7 13.4 7.2 50 5.3 NNE 19 22 10 12 - - 0.0
19/03:00pm 18.0 14.0 6.5 47 5.7 NNE 17 22 9 12 - - 0.0
19/02:30pm 17.9 13.7 5.8 45 5.9 NNE 17 20 9 11 - - 0.0
19/02:00pm 18.0 14.3 6.5 47 5.7 NNE 15 20 8 11 - - 0.0
19/01:30pm 16.2 12.5 4.6 46 5.5 NNE 13 20 7 11 - - 0.0
19/01:00pm 15.7 11.3 2.8 42 5.8 NNE 15 24 8 13 - - 0.0
19/12:30pm 15.8 11.9 3.3 43 5.7 NE 13 17 7 9 - - 0.0
19/12:00pm 15.6 11.9 2.1 40 6.0 NNE 11 15 6 8 - - 0.0
19/11:30am 15.5 11.2 1.3 38 6.2 N 13 22 7 12 - - 0.0
19/11:00am 15.4 11.3 0.0 35 6.5 NNW 11 22 6 12 - - 0.0
19/10:30am 14.8 10.7 -0.5 35 6.4 WNW 11 20 6 11 - - 0.0
19/10:00am 14.7 11.2 -1.0 34 6.5 ESE 7 13 4 7 - - 0.0
19/09:30am 14.3 10.5 -0.9 35 6.2 NW 9 20 5 11 - - 0.0
19/09:00am 14.3 10.2 -0.5 36 6.1 NNW 11 19 6 10 - - 0.0
19/08:30am 14.3 10.5 1.9 43 5.4 NNE 11 17 6 9 - - 0.0
19/08:00am 14.2 9.3 -0.3 37 6.0 NNE 15 20 8 11 - - 0.0
19/07:30am 13.5 8.8 0.9 42 5.3 NNE 15 24 8 13 - - 0.0
19/07:00am 12.0 9.1 1.6 49 4.4 NE 6 11 3 6 - - 0.0
19/06:30am 11.5 7.7 -0.9 42 5.0 WSW 9 13 5 7 - - 0.0
19/06:00am 11.7 8.6 1.1 48 4.4 N 7 13 4 7 - - 0.0
19/05:30am 12.0 8.2 1.6 49 4.4 NNW 11 20 6 11 - - 0.0
19/05:00am 12.0 8.5 1.1 47 4.6 NNE 9 13 5 7 - - 0.0
19/04:30am 12.2 8.8 -1.7 38 5.5 S 6 11 3 6 - - 0.0
19/04:00am 12.0 7.8 -1.2 40 5.3 NNE 11 19 6 10 - - 0.0
19/03:30am 12.0 7.9 -0.5 42 5.1 N 11 17 6 9 - - 0.0
19/03:00am 11.8 8.0 -1.0 41 5.1 ENE 9 20 5 11 - - 0.0
19/02:30am 11.6 8.2 -1.9 39 5.3 NNW 6 13 3 7 - - 0.0
19/02:00am 11.8 8.3 -2.8 36 5.6 SSE 6 9 3 5 - - 0.0
19/01:30am 12.2 9.1 -2.4 36 5.7 SSW 4 9 2 5 - - 0.0
19/01:00am 11.6 8.1 -1.5 40 5.2 NW 7 9 4 5 - - 0.0
19/12:30am 11.8 8.4 -2.4 37 5.5 WNW 6 9 3 5 - - 0.0
19/12:00am 12.2 9.9 -2.4 36 5.7 CALM 0 0 0 0 - - 0.0
 
Date/Time
EST
Temp
°C
App
Temp
°C
Dew
Point
°C
Rel
Hum
%
Delta-T
°C
Wind Press
QNH
hPa
Press
MSL
hPa
Rain since
9am
mm
Dir  Spd
km/h
Gust
km/h
Spd
kts
Gust
kts
18/11:30pm 13.0 9.0 -2.1 35 6.0 SSW 9 19 5 10 - - 0.0
18/11:00pm 12.8 8.3 -3.0 33 6.1 S 11 17 6 9 - - 0.0
18/10:30pm 12.5 8.7 -0.7 40 5.4 S 9 19 5 10 - - 0.0
18/10:00pm 11.8 7.5 -2.0 38 5.4 SW 11 13 6 7 - - 0.0
18/09:30pm 12.7 7.4 -4.0 31 6.3 SW 15 20 8 11 - - 0.0
18/09:00pm 13.5 9.6 -4.6 28 6.8 W 7 17 4 9 - - 0.0
18/08:30pm 13.5 10.3 -3.7 30 6.6 NW 4 9 2 5 - - 0.0
18/08:00pm 14.4 10.1 -5.3 25 7.4 S 9 17 5 9 - - 0.0
18/07:30pm 13.6 9.3 -5.0 27 6.9 WSW 9 17 5 9 - - 0.0
18/07:00pm 13.6 9.8 -3.6 30 6.6 SW 7 13 4 7 - - 0.0
18/06:30pm 14.0 9.4 -3.7 29 6.8 W 11 13 6 7 - - 0.0
18/06:00pm 14.6 10.4 -4.2 27 7.2 W 9 11 5 6 - - 0.0
18/05:30pm 15.1 11.2 -1.5 32 6.8 NW 9 11 5 6 - - 0.0
18/05:00pm 16.5 11.3 -5.9 21 8.5 W 13 19 7 10 - - 0.0
18/04:30pm 17.6 12.8 -5.6 20 8.9 SW 11 20 6 11 - - 0.0
18/04:00pm 18.6 13.5 -4.8 20 9.2 WSW 13 17 7 9 - - 0.0
18/03:30pm 18.8 13.2 -6.7 17 9.7 WSW 15 20 8 11 - - 0.0
18/03:00pm 19.0 12.7 -5.8 18 9.6 W 19 28 10 15 - - 0.0
18/02:30pm 19.3 13.3 -2.9 22 9.2 WNW 19 30 10 16 - - 0.0
18/02:00pm 18.9 14.3 -3.9 21 9.2 W 11 17 6 9 - - 0.0
18/01:30pm 18.5 12.7 -4.9 20 9.2 W 17 30 9 16 - - 0.0
18/01:00pm 18.6 13.3 -3.5 22 9.0 W 15 24 8 13 - - 0.0
18/12:30pm 18.0 12.3 -3.4 23 8.7 W 17 24 9 13 - - 0.0
18/12:00pm 17.3 12.1 -2.9 25 8.2 WSW 15 22 8 12 - - 0.0
18/11:30am 17.2 12.2 -1.4 28 7.8 WNW 15 20 8 11 - - 0.0
18/11:00am 16.1 11.8 -1.9 29 7.4 W 11 22 6 12 - - 0.0
18/10:30am 15.5 10.5 -1.5 31 7.0 W 15 22 8 12 - - 0.0
18/10:00am 14.8 9.4 -1.7 32 6.7 W 17 28 9 15 - - 0.0
18/09:30am 14.3 9.2 -1.7 33 6.5 W 15 26 8 14 - - 0.0
18/09:00am 13.7 10.4 0.0 39 5.7 W 7 11 4 6 - - 0.0
18/08:30am 12.9 9.2 0.0 41 5.3 W 9 15 5 8 - - 0.0
18/08:00am 11.8 7.5 1.2 48 4.5 NW 13 15 7 8 - - 0.0
18/07:30am 11.1 7.4 -0.1 46 4.5 WNW 9 13 5 7 - - 0.0
18/07:00am 10.9 6.8 -0.5 45 4.6 WSW 11 15 6 8 - - 0.0
18/06:30am 11.4 7.1 -1.4 41 5.0 WSW 11 13 6 7 - - 0.0
18/06:00am 11.8 7.5 -1.3 40 5.2 WNW 11 15 6 8 - - 0.0
18/05:30am 11.8 7.2 -1.0 41 5.1 WSW 13 15 7 8 - - 0.0
18/05:00am 13.0 8.2 -2.5 34 6.1 WSW 13 15 7 8 - - 0.0
18/04:30am 14.2 9.9 -1.8 33 6.4 WSW 11 20 6 11 - - 0.0
18/04:00am 14.1 10.5 0.4 39 5.8 W 9 15 5 8 - - 0.0
18/03:30am 14.9 9.8 0.7 38 6.1 SW 17 28 9 15 - - 0.0
18/03:00am 15.5 11.9 0.5 36 6.4 WSW 9 17 5 9 - - 0.0
18/02:30am 15.9 9.1 0.9 36 6.5 SSW 26 33 14 18 - - 0.0
18/02:00am 17.7 11.6 0.4 31 7.5 W 22 43 12 23 - - 0.0
18/01:30am 18.2 11.7 0.4 30 7.8 W 24 39 13 21 - - 0.0
18/01:00am 18.5 13.9 -0.8 27 8.3 WSW 13 28 7 15 - - 0.0
18/12:30am 18.4 15.1 -1.4 26 8.4 WNW 6 15 3 8 - - 0.0
18/12:00am 18.7 11.5 -2.3 24 8.7 NW 26 43 14 23 - - 0.0
 
Date/Time
EST
Temp
°C
App
Temp
°C
Dew
Point
°C
Rel
Hum
%
Delta-T
°C
Wind Press
QNH
hPa
Press
MSL
hPa
Rain since
9am
mm
Dir  Spd
km/h
Gust
km/h
Spd
kts
Gust
kts
17/11:35pm 18.7 11.0 -2.8 23 8.9 WNW 28 46 15 25 - - 0.0
17/11:30pm 18.7 11.0 -2.8 23 8.9 NW 28 43 15 23 - - 0.0
17/11:00pm 18.7 11.3 -4.0 21 9.1 WNW 26 46 14 25 - - 0.0
17/10:38pm 18.7 12.5 -3.4 22 9.0 WNW 20 52 11 28 - - 0.0
17/10:30pm 18.2 13.9 -4.5 21 9.0 SW 9 24 5 13 - - 0.0
17/10:00pm 17.8 12.3 -5.4 20 9.0 NW 15 28 8 15 - - 0.0
17/09:30pm 17.4 11.9 -2.3 26 8.1 N 17 28 9 15 - - 0.0
17/09:00pm 17.1 11.0 -2.0 27 7.9 N 20 28 11 15 - - 0.0
17/08:30pm 17.1 11.0 -2.5 26 8.0 NNW 20 28 11 15 - - 0.0

Latest Capital City Observations: Canberra | Sydney | Melbourne | Brisbane | Adelaide | Perth | Hobart | Darwin

Other Formats:

Comma delimited format used in spreadsheet applications
http://www.bom.gov.au/fwo/IDN60901/IDN60901.94749.axf

JavaScript Object Notation format (JSON) in row-major order
http://www.bom.gov.au/fwo/IDN60901/IDN60901.94749.json